createdAt,value
2023-01-29T00:02:05.909Z,81.95
2023-01-29T00:04:33.440Z,81.83
2023-01-29T00:06:59.990Z,82.02
2023-01-29T00:09:26.530Z,81.80
2023-01-29T00:11:52.961Z,81.82
2023-01-29T00:14:20.010Z,81.79
2023-01-29T00:16:46.421Z,81.76
2023-01-29T00:19:12.907Z,81.96
2023-01-29T00:21:39.339Z,82.12
2023-01-29T00:24:06.018Z,81.67
2023-01-29T00:26:32.547Z,81.66
2023-01-29T00:29:00.588Z,81.42
2023-01-29T00:31:27.222Z,81.64
2023-01-29T00:33:53.747Z,81.71
2023-01-29T00:36:21.620Z,81.80
2023-01-29T00:38:54.719Z,81.67
2023-01-29T00:41:41.020Z,81.54
2023-01-29T00:44:26.401Z,81.56
2023-01-29T00:46:52.896Z,81.69
2023-01-29T00:49:19.431Z,81.68
2023-01-29T00:52:05.884Z,81.69
2023-01-29T00:54:33.208Z,81.43
2023-01-29T00:57:00.269Z,81.59
2023-01-29T00:59:26.983Z,81.52
2023-01-29T01:02:12.116Z,81.37
2023-01-29T01:04:38.911Z,81.30
2023-01-29T01:07:06.227Z,81.29
2023-01-29T01:10:01.304Z,81.26
2023-01-29T01:12:28.696Z,81.49
2023-01-29T01:14:55.306Z,81.38
2023-01-29T01:17:21.825Z,81.32
2023-01-29T01:19:48.355Z,81.37
2023-01-29T01:22:14.787Z,81.40
2023-01-29T01:24:41.294Z,81.34
2023-01-29T01:27:07.971Z,81.32
2023-01-29T01:29:34.514Z,81.39
2023-01-29T01:32:01.240Z,81.10
2023-01-29T01:34:28.228Z,81.28
2023-01-29T01:36:58.503Z,81.29
2023-01-29T01:39:25.198Z,81.23
2023-01-29T01:41:55.433Z,81.22
2023-01-29T01:45:01.059Z,81.13
2023-01-29T01:47:36.440Z,81.23
2023-01-29T01:50:23.160Z,81.35
2023-01-29T01:52:53.067Z,81.06
2023-01-29T01:55:23.378Z,80.96
2023-01-29T01:57:56.127Z,81.12
2023-01-29T02:00:26.054Z,81.16
2023-01-29T02:03:12.367Z,81.13
2023-01-29T02:05:59.632Z,80.98
2023-01-29T02:09:01.684Z,81.23
2023-01-29T02:11:28.056Z,81.05
2023-01-29T02:13:54.482Z,81.05
2023-01-29T02:16:22.584Z,80.77
2023-01-29T02:18:50.568Z,81.08
2023-01-29T02:21:25.022Z,81.07
2023-01-29T02:24:21.975Z,80.85
2023-01-29T02:27:19.795Z,80.72
2023-01-29T02:29:51.561Z,80.82
2023-01-29T02:32:33.747Z,80.69
2023-01-29T02:35:21.719Z,80.63
2023-01-29T02:38:18.058Z,80.54
2023-01-29T02:40:57.347Z,80.50
2023-01-29T02:43:39.043Z,80.94
2023-01-29T02:46:08.712Z,80.96
2023-01-29T02:48:42.931Z,80.78
2023-01-29T02:51:24.530Z,80.51
2023-01-29T02:53:56.587Z,80.50
2023-01-29T02:56:40.123Z,80.67
2023-01-29T02:59:17.969Z,80.52
2023-01-29T03:01:58.559Z,80.59
2023-01-29T03:04:32.636Z,80.78
2023-01-29T03:07:10.075Z,80.69
2023-01-29T03:09:44.502Z,80.61
2023-01-29T03:12:19.898Z,80.55
2023-01-29T03:15:08.359Z,80.54
2023-01-29T03:17:43.675Z,80.62
2023-01-29T03:20:17.766Z,80.48
2023-01-29T03:22:51.612Z,80.62
2023-01-29T03:25:41.222Z,80.54
2023-01-29T03:28:28.588Z,80.31
2023-01-29T03:31:15.945Z,80.79
2023-01-29T03:33:48.357Z,80.59
2023-01-29T03:36:22.898Z,80.32
2023-01-29T03:38:49.491Z,80.61
2023-01-29T03:41:23.581Z,80.53
2023-01-29T03:44:03.525Z,80.38
2023-01-29T03:46:36.248Z,80.37
2023-01-29T03:49:19.336Z,80.27
2023-01-29T03:52:00.657Z,80.39
2023-01-29T03:54:37.750Z,80.53
2023-01-29T03:57:19.751Z,80.42
2023-01-29T03:59:50.613Z,80.49
2023-01-29T04:02:27.343Z,80.20
2023-01-29T04:04:58.106Z,80.37
2023-01-29T04:07:26.352Z,80.20
2023-01-29T04:09:58.321Z,80.13
2023-01-29T04:12:36.004Z,80.34
2023-01-29T04:15:04.956Z,80.30
2023-01-29T04:17:39.718Z,80.22
2023-01-29T04:20:06.715Z,80.47
2023-01-29T04:22:38.858Z,80.38
2023-01-29T04:25:15.899Z,80.46
2023-01-29T04:27:51.475Z,80.46
2023-01-29T04:30:29.674Z,80.39
2023-01-29T04:33:05.111Z,80.18
2023-01-29T04:35:53.238Z,80.15
2023-01-29T04:38:35.267Z,80.30
2023-01-29T04:41:11.332Z,80.00
2023-01-29T04:44:00.627Z,80.03
2023-01-29T04:46:33.827Z,80.16
2023-01-29T04:49:17.343Z,80.17
2023-01-29T04:51:49.703Z,79.87
2023-01-29T04:54:26.004Z,80.04
2023-01-29T04:56:58.906Z,80.14
2023-01-29T04:59:36.303Z,80.09
2023-01-29T05:02:04.400Z,79.85
2023-01-29T05:04:34.216Z,79.92
2023-01-29T05:07:08.859Z,80.05
2023-01-29T05:09:38.773Z,80.28
2023-01-29T05:12:11.165Z,79.78
2023-01-29T05:14:40.138Z,79.88
2023-01-29T05:17:13.874Z,80.10
2023-01-29T05:19:40.383Z,80.18
2023-01-29T05:22:11.181Z,80.02
2023-01-29T05:24:38.133Z,80.07
2023-01-29T05:27:23.172Z,80.04
2023-01-29T05:29:49.688Z,80.09
2023-01-29T05:32:16.452Z,80.01
2023-01-29T05:34:42.920Z,80.04
2023-01-29T05:37:10.343Z,80.37
2023-01-29T05:39:36.719Z,80.04
2023-01-29T05:42:03.164Z,79.94
2023-01-29T05:44:29.525Z,80.17
2023-01-29T05:46:56.002Z,79.88
2023-01-29T05:49:22.667Z,79.99
2023-01-29T05:51:49.153Z,80.00
2023-01-29T05:54:16.613Z,80.36
2023-01-29T05:56:43.269Z,80.15
2023-01-29T05:59:09.667Z,79.88
2023-01-29T06:01:36.164Z,80.00
2023-01-29T06:04:02.739Z,79.93
2023-01-29T06:06:29.190Z,80.13
2023-01-29T06:08:55.977Z,80.01
2023-01-29T06:11:22.453Z,80.06
2023-01-29T06:13:49.099Z,80.04
2023-01-29T06:16:15.794Z,80.23
2023-01-29T06:18:42.393Z,79.59
2023-01-29T06:21:11.762Z,79.91
2023-01-29T06:23:38.620Z,80.00
2023-01-29T06:26:07.831Z,79.86
2023-01-29T06:28:34.485Z,79.84
2023-01-29T06:31:30.365Z,79.79
2023-01-29T06:33:52.656Z,79.82
2023-01-29T06:36:19.165Z,80.17
2023-01-29T06:38:45.625Z,79.90
2023-01-29T06:41:15.195Z,79.87
2023-01-29T06:43:44.076Z,79.82
2023-01-29T06:46:10.762Z,79.62
2023-01-29T06:48:37.147Z,79.81
2023-01-29T06:51:05.255Z,79.72
2023-01-29T06:53:32.869Z,79.86
2023-01-29T06:55:59.287Z,79.72
2023-01-29T06:58:26.108Z,79.77
2023-01-29T07:00:52.945Z,79.83
2023-01-29T07:03:19.459Z,79.87
2023-01-29T07:05:52.856Z,79.96
2023-01-29T07:08:22.602Z,79.82
2023-01-29T07:10:49.868Z,79.77
2023-01-29T07:13:16.548Z,79.65
2023-01-29T07:15:44.359Z,79.74
2023-01-29T07:18:13.820Z,79.59
2023-01-29T07:20:41.374Z,79.73
2023-01-29T07:23:11.844Z,79.86
2023-01-29T07:25:38.931Z,79.70
2023-01-29T07:28:06.152Z,79.80
2023-01-29T07:30:33.693Z,79.79
2023-01-29T07:33:08.197Z,79.68
2023-01-29T07:35:39.387Z,79.60
2023-01-29T07:38:07.323Z,79.60
2023-01-29T07:40:34.178Z,79.57
2023-01-29T07:43:03.399Z,79.62
2023-01-29T07:45:31.044Z,79.49
2023-01-29T07:47:57.625Z,79.29
2023-01-29T07:50:25.850Z,79.29
2023-01-29T07:52:54.347Z,79.33
2023-01-29T07:55:20.748Z,79.34
2023-01-29T07:57:47.411Z,79.51
2023-01-29T08:00:15.472Z,79.23
2023-01-29T08:02:42.276Z,79.08
2023-01-29T08:05:09.021Z,79.48
2023-01-29T08:07:35.410Z,79.22
2023-01-29T08:10:01.877Z,79.33
2023-01-29T08:12:28.268Z,79.40
2023-01-29T08:14:54.673Z,79.26
2023-01-29T08:17:21.165Z,78.87
2023-01-29T08:19:47.599Z,78.97
2023-01-29T08:22:15.277Z,79.02
2023-01-29T08:24:53.607Z,79.10
2023-01-29T08:27:26.662Z,79.12
2023-01-29T08:29:53.108Z,79.37
2023-01-29T08:32:19.514Z,79.02
2023-01-29T08:34:45.984Z,78.83
2023-01-29T08:37:12.432Z,78.95
2023-01-29T08:39:38.836Z,78.60
2023-01-29T08:42:05.467Z,78.82
2023-01-29T08:44:31.863Z,78.66
2023-01-29T08:46:58.306Z,78.79
2023-01-29T08:49:24.728Z,78.78
2023-01-29T08:51:53.834Z,78.89
2023-01-29T08:54:20.280Z,79.05
2023-01-29T08:56:46.677Z,78.78
2023-01-29T08:59:13.177Z,78.95
2023-01-29T09:01:39.601Z,78.76
2023-01-29T09:04:05.947Z,78.87
2023-01-29T09:06:32.334Z,78.67
2023-01-29T09:08:58.747Z,78.68
2023-01-29T09:11:25.132Z,78.33
2023-01-29T09:16:46.159Z,78.44
2023-01-29T09:19:22.727Z,78.09
2023-01-29T09:21:50.394Z,78.03
2023-01-29T09:24:18.062Z,78.23
2023-01-29T09:26:48.147Z,78.16
2023-01-29T09:29:15.770Z,78.15
2023-01-29T09:31:43.610Z,77.97
2023-01-29T09:34:10.763Z,78.01
2023-01-29T09:36:41.272Z,78.13
2023-01-29T09:39:11.935Z,78.20
2023-01-29T09:42:05.647Z,78.36
2023-01-29T09:44:51.617Z,78.00
2023-01-29T09:47:19.824Z,77.86
2023-01-29T09:49:52.522Z,77.74
2023-01-29T09:52:32.198Z,77.55
2023-01-29T09:55:14.798Z,77.65
2023-01-29T09:57:52.055Z,77.52
2023-01-29T10:00:35.235Z,77.02
2023-01-29T10:03:37.562Z,76.96
2023-01-29T10:06:12.359Z,76.75
2023-01-29T10:08:51.950Z,76.39
2023-01-29T10:11:36.843Z,76.58
2023-01-29T10:14:12.196Z,76.34
2023-01-29T10:16:53.737Z,76.17
2023-01-29T10:19:38.832Z,76.14
2023-01-29T10:22:08.419Z,75.93
2023-01-29T10:24:40.644Z,76.06
2023-01-29T10:27:17.637Z,75.93
2023-01-29T10:29:47.123Z,75.82
2023-01-29T10:32:21.070Z,76.08
2023-01-29T10:34:58.449Z,75.91
2023-01-29T10:37:35.072Z,75.63
2023-01-29T10:40:01.524Z,75.60
2023-01-29T10:42:38.357Z,75.83
2023-01-29T10:45:15.574Z,75.58
2023-01-29T10:47:50.722Z,75.42
2023-01-29T10:50:43.212Z,75.52
2023-01-29T10:53:33.620Z,75.54
2023-01-29T10:56:22.147Z,75.17
2023-01-29T10:58:53.626Z,75.42
2023-01-29T11:01:20.162Z,75.05
2023-01-29T11:03:56.690Z,75.01
2023-01-29T11:06:27.679Z,75.02
2023-01-29T11:09:29.374Z,74.96
2023-01-29T11:12:04.483Z,74.91
2023-01-29T11:14:48.796Z,74.73
2023-01-29T11:17:17.777Z,74.64
2023-01-29T11:19:46.834Z,74.72
2023-01-29T11:22:19.940Z,74.55
2023-01-29T11:24:47.413Z,74.72
2023-01-29T11:27:22.964Z,74.50
2023-01-29T11:29:50.183Z,74.49
2023-01-29T11:32:22.597Z,74.86
2023-01-29T11:35:15.248Z,74.37
2023-01-29T11:37:44.539Z,74.38
2023-01-29T11:40:40.783Z,74.19
2023-01-29T11:43:38.777Z,73.83
2023-01-29T11:46:11.818Z,73.80
2023-01-29T11:48:44.811Z,73.71
2023-01-29T11:51:20.675Z,73.65
2023-01-29T11:53:55.255Z,73.79
2023-01-29T11:56:28.771Z,73.85
2023-01-29T11:58:57.637Z,73.78
2023-01-29T12:01:36.957Z,73.87
2023-01-29T12:04:15.153Z,73.84
2023-01-29T12:06:45.224Z,73.67
2023-01-29T12:09:18.235Z,73.49
2023-01-29T12:11:44.660Z,73.38
2023-01-29T12:14:33.369Z,73.24
2023-01-29T12:17:07.053Z,73.08
2023-01-29T12:19:58.959Z,73.28
2023-01-29T12:23:12.028Z,72.69
2023-01-29T12:25:58.749Z,72.43
2023-01-29T12:28:39.847Z,72.26
2023-01-29T12:31:29.220Z,72.09
2023-01-29T12:34:08.232Z,71.81
2023-01-29T12:36:52.879Z,71.79
2023-01-29T12:39:20.618Z,71.54
2023-01-29T12:41:50.050Z,71.62
2023-01-29T12:44:26.233Z,71.83
2023-01-29T12:46:58.373Z,71.46
2023-01-29T12:49:52.283Z,71.50
2023-01-29T12:52:37.386Z,71.51
2023-01-29T12:55:27.925Z,71.32
2023-01-29T12:58:09.665Z,71.20
2023-01-29T13:00:40.854Z,71.74
2023-01-29T13:03:08.706Z,71.84
2023-01-29T13:05:53.741Z,71.60
2023-01-29T13:08:33.079Z,71.41
2023-01-29T13:11:07.140Z,71.22
2023-01-29T13:13:55.133Z,71.48
2023-01-29T13:16:28.602Z,71.50
2023-01-29T13:19:03.234Z,70.95
2023-01-29T13:21:36.452Z,70.91
2023-01-29T13:24:25.477Z,71.25
2023-01-29T13:26:52.633Z,71.26
2023-01-29T13:29:29.793Z,71.10
2023-01-29T13:32:07.310Z,70.50
2023-01-29T13:34:53.040Z,70.36
2023-01-29T13:37:31.233Z,70.25
2023-01-29T13:40:18.921Z,70.32
2023-01-29T13:42:54.419Z,69.87
2023-01-29T13:45:23.836Z,70.15
2023-01-29T13:47:52.061Z,69.86
2023-01-29T13:50:20.844Z,70.15
2023-01-29T13:52:55.371Z,70.16
2023-01-29T13:55:33.538Z,70.15
2023-01-29T13:58:01.985Z,70.30
2023-01-29T14:00:34.459Z,70.49
2023-01-29T14:03:00.865Z,70.69
2023-01-29T14:05:30.114Z,70.64
2023-01-29T14:08:08.684Z,70.87
2023-01-29T14:10:37.602Z,70.83
2023-01-29T14:13:03.974Z,70.92
2023-01-29T14:15:36.048Z,70.77
2023-01-29T14:18:08.548Z,70.54
2023-01-29T14:20:47.261Z,70.40
2023-01-29T14:23:42.471Z,70.78
2023-01-29T14:26:30.134Z,71.11
2023-01-29T14:29:04.428Z,70.65
2023-01-29T14:31:41.992Z,70.47
2023-01-29T14:34:23.800Z,70.77
2023-01-29T14:36:55.438Z,70.78
2023-01-29T14:39:24.479Z,71.18
2023-01-29T14:41:52.589Z,70.85
2023-01-29T14:44:48.370Z,70.83
2023-01-29T14:47:49.001Z,71.10
2023-01-29T14:50:48.326Z,71.44
2023-01-29T14:53:21.771Z,71.05
2023-01-29T14:56:15.558Z,71.11
2023-01-29T14:58:50.222Z,71.17
2023-01-29T15:01:33.931Z,71.08
2023-01-29T15:04:12.095Z,71.19
2023-01-29T15:06:53.304Z,71.03
2023-01-29T15:10:22.339Z,71.19
2023-01-29T15:13:07.225Z,71.30
2023-01-29T15:15:37.697Z,71.50
2023-01-29T15:18:17.234Z,71.27
2023-01-29T15:20:48.087Z,71.26
2023-01-29T15:24:29.145Z,71.25
2023-01-29T15:34:10.946Z,71.19
2023-01-29T15:36:47.122Z,71.48
2023-01-29T15:39:37.199Z,71.49
2023-01-29T15:42:27.166Z,71.48
2023-01-29T15:45:15.845Z,71.66
2023-01-29T15:47:43.491Z,71.56
2023-01-29T15:50:12.504Z,71.54
2023-01-29T15:52:39.596Z,71.90
2023-01-29T15:55:08.642Z,71.70
2023-01-29T15:57:42.581Z,71.95
2023-01-29T16:00:23.428Z,71.90
2023-01-29T16:02:49.916Z,72.25
2023-01-29T16:05:29.325Z,72.31
2023-01-29T16:07:57.610Z,72.30
2023-01-29T16:10:29.966Z,72.37
2023-01-29T16:12:57.392Z,72.45
2023-01-29T16:15:33.399Z,72.62
2023-01-29T16:18:02.272Z,72.64
2023-01-29T16:20:33.968Z,73.02
2023-01-29T16:23:00.908Z,72.72
2023-01-29T16:25:30.192Z,72.96
2023-01-29T16:27:57.647Z,73.15
2023-01-29T16:30:27.943Z,73.22
2023-01-29T16:33:01.720Z,73.13
2023-01-29T16:35:28.285Z,73.47
2023-01-29T16:38:03.320Z,73.36
2023-01-29T16:40:33.827Z,73.67
2023-01-29T16:43:20.723Z,73.42
2023-01-29T16:46:34.768Z,73.59
2023-01-29T16:49:02.136Z,73.49
2023-01-29T16:51:38.966Z,73.87
2023-01-29T16:54:16.181Z,74.05
2023-01-29T16:56:46.483Z,74.02
2023-01-29T16:59:26.764Z,74.02
2023-01-29T17:01:55.530Z,74.27
2023-01-29T17:04:22.523Z,74.30
2023-01-29T17:06:54.909Z,74.54
2023-01-29T17:09:26.342Z,74.50
2023-01-29T17:11:56.851Z,74.44
2023-01-29T17:14:25.795Z,74.66
2023-01-29T17:17:02.123Z,74.52
2023-01-29T17:19:30.151Z,74.48
2023-01-29T17:21:58.986Z,75.03
2023-01-29T17:24:26.534Z,74.80
2023-01-29T17:26:54.232Z,74.78
2023-01-29T17:29:26.372Z,75.11
2023-01-29T17:31:52.938Z,74.65
2023-01-29T17:34:19.522Z,74.81
2023-01-29T17:36:46.172Z,75.21
2023-01-29T17:39:24.007Z,75.21
2023-01-29T17:41:55.580Z,75.23
2023-01-29T17:44:22.611Z,75.31
2023-01-29T17:46:49.567Z,75.30
2023-01-29T17:49:29.216Z,75.17
2023-01-29T17:51:57.065Z,75.52
2023-01-29T17:54:24.230Z,75.43
2023-01-29T17:56:51.353Z,75.79
2023-01-29T17:59:19.048Z,75.65
2023-01-29T18:01:46.338Z,75.94
2023-01-29T18:04:13.208Z,75.83
2023-01-29T18:06:41.128Z,75.83
2023-01-29T18:09:07.924Z,75.93
2023-01-29T18:11:35.374Z,75.89
2023-01-29T18:14:04.519Z,75.92
2023-01-29T18:16:41.793Z,75.97
2023-01-29T18:19:22.127Z,76.07
2023-01-29T18:21:49.566Z,75.73
2023-01-29T18:24:16.356Z,75.93
2023-01-29T18:26:43.136Z,76.25
2023-01-29T18:29:09.744Z,76.13
2023-01-29T18:31:36.439Z,75.87
2023-01-29T18:34:03.380Z,76.15
2023-01-29T18:36:30.088Z,76.29
2023-01-29T18:38:57.453Z,76.23
2023-01-29T18:41:24.254Z,76.32
2023-01-29T18:43:52.708Z,76.46
2023-01-29T18:46:20.155Z,76.47
2023-01-29T18:48:46.685Z,76.67
2023-01-29T18:51:13.239Z,76.21
2023-01-29T18:53:39.876Z,76.75
2023-01-29T18:56:06.970Z,76.79
2023-01-29T18:58:36.957Z,76.99
2023-01-29T19:01:10.078Z,76.57
2023-01-29T19:03:37.957Z,77.17
2023-01-29T19:06:06.490Z,77.04
2023-01-29T19:08:33.233Z,77.03
2023-01-29T19:11:05.468Z,77.03
2023-01-29T19:13:32.534Z,77.24
2023-01-29T19:15:59.153Z,77.30
2023-01-29T19:18:26.869Z,77.67
2023-01-29T19:20:53.941Z,77.43
2023-01-29T19:23:21.270Z,77.16
2023-01-29T19:25:48.070Z,77.27
2023-01-29T19:28:15.300Z,77.57
2023-01-29T19:30:41.997Z,77.74
2023-01-29T19:33:09.792Z,77.60
2023-01-29T19:35:36.392Z,77.68
2023-01-29T19:38:04.179Z,77.66
2023-01-29T19:40:30.941Z,77.72
2023-01-29T19:42:58.440Z,77.71
2023-01-29T19:45:37.203Z,77.78
2023-01-29T19:48:14.429Z,77.75
2023-01-29T19:50:41.003Z,77.91
2023-01-29T19:53:07.496Z,78.10
2023-01-29T19:55:34.085Z,78.10
2023-01-29T19:58:00.698Z,78.03
2023-01-29T20:00:27.160Z,78.13
2023-01-29T20:02:53.603Z,78.24
2023-01-29T20:05:20.524Z,78.28
2023-01-29T20:07:47.281Z,78.25
2023-01-29T20:10:17.574Z,78.63
2023-01-29T20:12:45.148Z,78.33
2023-01-29T20:15:13.324Z,78.49
2023-01-29T20:17:40.413Z,78.18
2023-01-29T20:20:07.423Z,78.67
2023-01-29T20:22:33.955Z,78.55
2023-01-29T20:25:00.549Z,78.34
2023-01-29T20:27:27.137Z,78.50
2023-01-29T20:29:53.549Z,78.53
2023-01-29T20:32:20.119Z,78.67
2023-01-29T20:34:51.701Z,78.76
2023-01-29T20:37:19.391Z,78.81
2023-01-29T20:39:46.105Z,78.91
2023-01-29T20:42:12.911Z,79.01
2023-01-29T20:44:39.473Z,79.14
2023-01-29T20:47:06.022Z,79.24
2023-01-29T20:49:32.522Z,79.00
2023-01-29T20:51:59.135Z,79.16
2023-01-29T20:54:25.711Z,79.19
2023-01-29T20:56:52.414Z,79.28
2023-01-29T20:59:19.720Z,79.33
2023-01-29T21:01:46.236Z,79.49
2023-01-29T21:04:12.776Z,79.56
2023-01-29T21:06:39.298Z,79.45
2023-01-29T21:09:05.998Z,79.53
2023-01-29T21:11:33.696Z,79.65
2023-01-29T21:14:01.845Z,79.47
2023-01-29T21:16:28.539Z,79.47
2023-01-29T21:18:56.709Z,79.56
2023-01-29T21:21:23.213Z,79.69
2023-01-29T21:23:49.934Z,79.92
2023-01-29T21:26:16.371Z,79.87
2023-01-29T21:28:42.794Z,79.85
2023-01-29T21:31:12.395Z,79.98
2023-01-29T21:33:38.827Z,80.09
2023-01-29T21:36:06.110Z,80.15
2023-01-29T21:38:32.786Z,80.02
2023-01-29T21:41:04.777Z,80.20
2023-01-29T21:43:31.245Z,80.20
2023-01-29T21:45:59.582Z,80.20
2023-01-29T21:48:26.509Z,80.22
2023-01-29T21:50:53.016Z,80.19
2023-01-29T21:53:20.041Z,80.28
2023-01-29T21:55:47.044Z,80.46
2023-01-29T21:58:14.614Z,80.43
2023-01-29T22:00:41.220Z,80.51
2023-01-29T22:03:07.759Z,80.44
2023-01-29T22:05:34.775Z,80.55
2023-01-29T22:08:01.391Z,80.38
2023-01-29T22:10:28.562Z,80.53
2023-01-29T22:12:55.237Z,80.56
2023-01-29T22:15:23.757Z,80.64
2023-01-29T22:17:50.739Z,80.66
2023-01-29T22:20:17.889Z,80.63
2023-01-29T22:22:44.627Z,80.76
2023-01-29T22:25:11.258Z,80.81
2023-01-29T22:27:38.021Z,81.02
2023-01-29T22:30:05.613Z,80.92
2023-01-29T22:32:32.677Z,80.90
2023-01-29T22:34:59.110Z,80.84
2023-01-29T22:37:25.486Z,80.92
2023-01-29T22:39:51.948Z,80.99
2023-01-29T22:42:20.582Z,80.90
2023-01-29T22:44:48.097Z,80.90
2023-01-29T22:47:14.518Z,81.19
2023-01-29T22:49:41.725Z,80.85
2023-01-29T22:52:11.006Z,80.92
2023-01-29T22:54:42.184Z,80.93
2023-01-29T22:57:13.698Z,80.80
2023-01-29T22:59:40.270Z,80.77
2023-01-29T23:02:07.940Z,80.79
2023-01-29T23:04:34.406Z,80.78
2023-01-29T23:07:00.857Z,80.99
2023-01-29T23:09:27.291Z,80.87
2023-01-29T23:11:53.754Z,80.89
2023-01-29T23:14:20.377Z,81.00
2023-01-29T23:16:46.846Z,80.97
2023-01-29T23:19:13.759Z,81.06
2023-01-29T23:21:40.232Z,81.15
2023-01-29T23:24:08.012Z,81.29
2023-01-29T23:26:53.310Z,81.27
2023-01-29T23:29:20.400Z,81.17
2023-01-29T23:31:46.999Z,81.59
2023-01-29T23:34:14.005Z,81.39
2023-01-29T23:36:40.887Z,81.32
2023-01-29T23:39:08.095Z,81.24
2023-01-29T23:41:34.684Z,81.45
2023-01-29T23:44:01.179Z,81.39
2023-01-29T23:46:27.671Z,81.39
2023-01-29T23:48:54.147Z,81.24
2023-01-29T23:51:20.664Z,81.32
2023-01-29T23:53:47.241Z,81.18
2023-01-29T23:56:13.833Z,81.50
2023-01-29T23:58:40.472Z,81.49
